Time;durP1;ratioP1;P1;durP2;ratioP2;P2;SDS_P1;SDS_P2;PMS_P1;PMS_P2;Temp;Humidity;BMP_temperature;BMP_pressure;BME280_temperature;BME280_humidity;BME280_pressure;Samples;Min_cycle;Max_cycle;Signal;HPM_P1;HPM_P2
2023/12/27 00:02:10;;;;;;;15.98;9.80;;;5.80;99.90;;;;;;5060074;28;20029;-38
2023/12/27 00:04:37;;;;;;;13.45;9.65;;;5.90;99.90;;;;;;5060071;28;20067;-37
2023/12/27 00:07:02;;;;;;;12.13;8.77;;;5.80;99.90;;;;;;5063052;28;20024;-37
2023/12/27 00:09:28;;;;;;;14.30;9.10;;;5.80;99.90;;;;;;5063404;28;20102;-37
2023/12/27 00:11:53;;;;;;;14.27;9.30;;;5.80;99.90;;;;;;5062645;28;20110;-37
2023/12/27 00:14:19;;;;;;;12.38;8.75;;;5.70;99.90;;;;;;5063626;28;20024;-38
2023/12/27 00:16:45;;;;;;;12.73;8.32;;;5.70;99.90;;;;;;5063310;28;20024;-37
2023/12/27 00:19:11;;;;;;;11.18;8.20;;;5.70;99.90;;;;;;5062625;28;20531;-39
2023/12/27 00:21:36;;;;;;;10.55;7.35;;;5.70;99.90;;;;;;5062621;28;20055;-38
2023/12/27 00:24:02;;;;;;;10.40;7.10;;;5.60;99.90;;;;;;5063110;28;20075;-37
2023/12/27 00:26:31;;;;;;;11.85;7.35;;;5.60;99.90;;;;;;5062804;28;20032;-38
2023/12/27 00:28:56;;;;;;;12.68;7.82;;;5.60;99.90;;;;;;5063155;28;20487;-38
2023/12/27 00:31:22;;;;;;;10.77;7.53;;;5.60;99.90;;;;;;5063014;28;20379;-38
2023/12/27 00:33:47;;;;;;;11.65;8.13;;;5.60;99.90;;;;;;5051940;28;20567;-38
2023/12/27 00:36:19;;;;;;;12.65;8.02;;;5.50;99.90;;;;;;5063412;28;20104;-37
2023/12/27 00:38:48;;;;;;;11.40;7.10;;;5.50;99.90;;;;;;5062887;28;20122;-37
2023/12/27 00:41:13;;;;;;;15.50;7.57;;;5.50;99.90;;;;;;5061502;28;20060;-38
2023/12/27 00:43:40;;;;;;;12.57;7.55;;;5.50;99.90;;;;;;5062758;28;20122;-39
2023/12/27 00:46:06;;;;;;;13.20;7.13;;;5.50;99.90;;;;;;5062691;28;20031;-38
2023/12/27 00:48:32;;;;;;;10.02;6.78;;;5.50;99.90;;;;;;5063323;28;20035;-38
2023/12/27 00:50:59;;;;;;;12.18;6.80;;;5.40;99.90;;;;;;5063491;28;20024;-39
2023/12/27 00:53:28;;;;;;;11.70;6.90;;;5.40;99.90;;;;;;5057035;28;20029;-37
2023/12/27 00:55:53;;;;;;;10.43;6.40;;;5.40;99.90;;;;;;5062464;28;20036;-38
2023/12/27 00:58:19;;;;;;;12.05;6.97;;;5.40;99.90;;;;;;5063554;28;20032;-38
2023/12/27 01:00:45;;;;;;;9.05;6.53;;;5.40;99.90;;;;;;5061927;28;20033;-38
2023/12/27 01:03:10;;;;;;;9.18;6.25;;;5.40;99.90;;;;;;5062539;28;20111;-40
2023/12/27 01:05:36;;;;;;;11.38;6.63;;;5.40;99.90;;;;;;5062079;28;20533;-38
2023/12/27 01:08:02;;;;;;;11.07;6.35;;;5.40;99.90;;;;;;5061566;28;20117;-36
2023/12/27 01:10:28;;;;;;;9.07;6.65;;;5.30;99.90;;;;;;5062908;28;20035;-37
2023/12/27 01:12:53;;;;;;;9.38;6.53;;;5.30;99.90;;;;;;5060201;28;20036;-36
2023/12/27 01:15:19;;;;;;;10.57;6.38;;;5.30;99.90;;;;;;5061006;28;20042;-37
2023/12/27 01:17:45;;;;;;;8.35;5.90;;;5.30;99.90;;;;;;5062022;28;20020;-37
2023/12/27 01:20:11;;;;;;;9.25;6.30;;;5.20;99.90;;;;;;5061832;28;20025;-37
2023/12/27 01:22:36;;;;;;;8.63;6.57;;;5.20;99.90;;;;;;5061068;28;20016;-37
2023/12/27 01:25:02;;;;;;;9.02;5.95;;;5.20;99.90;;;;;;5061465;28;20115;-37
2023/12/27 01:27:31;;;;;;;12.27;6.55;;;5.30;99.90;;;;;;5061611;28;20759;-37
2023/12/27 01:29:56;;;;;;;10.68;5.95;;;5.30;99.90;;;;;;5061782;28;20119;-37
2023/12/27 01:32:22;;;;;;;10.23;6.90;;;5.30;99.90;;;;;;5059412;28;20040;-37
2023/12/27 01:34:48;;;;;;;13.55;6.25;;;5.30;99.90;;;;;;5062042;28;20048;-36
2023/12/27 01:37:14;;;;;;;10.48;6.05;;;5.30;99.90;;;;;;5060492;28;20667;-36
2023/12/27 01:39:39;;;;;;;9.02;6.05;;;5.30;99.90;;;;;;5061528;28;20071;-36
2023/12/27 01:42:05;;;;;;;9.82;5.90;;;5.30;99.90;;;;;;5060762;28;20032;-36
2023/12/27 01:44:31;;;;;;;9.80;6.90;;;5.40;99.90;;;;;;5061551;28;20024;-36
2023/12/27 01:46:57;;;;;;;9.45;6.47;;;5.40;99.90;;;;;;5060992;28;20028;-37
2023/12/27 01:49:23;;;;;;;9.15;5.85;;;5.40;99.90;;;;;;5057838;28;20032;-36
2023/12/27 01:51:49;;;;;;;7.20;5.53;;;5.40;99.90;;;;;;5060715;28;20518;-37
2023/12/27 01:54:15;;;;;;;11.32;6.03;;;5.40;99.90;;;;;;5061299;28;20177;-36
2023/12/27 01:56:44;;;;;;;8.05;5.65;;;5.40;99.90;;;;;;5059651;28;20024;-36
2023/12/27 01:59:11;;;;;;;10.20;6.30;;;5.40;99.90;;;;;;5061071;28;20024;-37
2023/12/27 02:01:38;;;;;;;10.75;6.68;;;5.50;99.90;;;;;;5061047;28;20036;-38
2023/12/27 02:04:03;;;;;;;9.73;6.13;;;5.50;99.90;;;;;;5056420;28;20028;-38
2023/12/27 02:06:29;;;;;;;11.30;6.90;;;5.50;99.90;;;;;;5060867;28;20028;-37
2023/12/27 02:08:55;;;;;;;9.88;6.32;;;5.50;99.90;;;;;;5059106;28;20032;-37
2023/12/27 02:11:21;;;;;;;9.68;6.05;;;5.50;99.90;;;;;;5060277;28;20038;-37
2023/12/27 02:13:47;;;;;;;8.73;5.75;;;5.50;99.90;;;;;;5061043;28;20035;-38
2023/12/27 02:16:14;;;;;;;10.15;6.07;;;5.50;99.90;;;;;;5060702;28;20116;-37
2023/12/27 02:18:40;;;;;;;11.25;6.72;;;5.50;99.90;;;;;;5059844;28;20107;-36
2023/12/27 02:21:06;;;;;;;9.20;6.03;;;5.50;99.90;;;;;;5060790;28;20028;-38
2023/12/27 02:23:35;;;;;;;10.93;6.32;;;5.50;99.90;;;;;;5059285;28;20032;-36
2023/12/27 02:26:03;;;;;;;7.65;5.53;;;5.50;99.90;;;;;;5060392;28;20577;-37
2023/12/27 02:28:28;;;;;;;8.70;5.35;;;5.50;99.90;;;;;;5062967;28;20020;-37
2023/12/27 02:30:54;;;;;;;10.05;5.55;;;5.50;99.90;;;;;;5059911;28;20460;-36
2023/12/27 02:33:20;;;;;;;8.55;5.78;;;5.50;99.90;;;;;;5059887;28;20550;-36
2023/12/27 02:35:49;;;;;;;9.65;5.75;;;5.40;99.90;;;;;;5060649;28;20028;-39
2023/12/27 02:38:15;;;;;;;9.88;5.80;;;5.40;99.90;;;;;;5059637;28;20052;-36
2023/12/27 02:40:41;;;;;;;8.00;5.43;;;5.40;99.90;;;;;;5059953;28;20115;-36
2023/12/27 02:43:06;;;;;;;8.43;5.35;;;5.40;99.90;;;;;;5060092;28;20048;-37
2023/12/27 02:45:32;;;;;;;8.65;6.00;;;5.30;99.90;;;;;;5059219;28;20098;-37
2023/12/27 02:47:58;;;;;;;10.73;6.53;;;5.30;99.90;;;;;;5058510;28;20056;-40
2023/12/27 02:50:23;;;;;;;9.63;5.35;;;5.30;99.90;;;;;;5059813;28;20024;-36
2023/12/27 02:52:49;;;;;;;6.45;5.28;;;5.30;99.90;;;;;;5059380;28;20079;-45
2023/12/27 02:55:14;;;;;;;7.68;5.03;;;5.30;99.90;;;;;;5057903;28;20044;-37
2023/12/27 02:57:40;;;;;;;9.32;5.93;;;5.30;99.90;;;;;;5059083;28;20036;-37
2023/12/27 03:00:07;;;;;;;9.43;5.82;;;5.40;99.90;;;;;;5058751;28;20740;-36
2023/12/27 03:02:33;;;;;;;8.57;5.75;;;5.40;99.90;;;;;;5060123;28;20821;-36
2023/12/27 03:04:58;;;;;;;9.65;5.97;;;5.40;99.90;;;;;;5059151;28;20071;-37
2023/12/27 03:07:24;;;;;;;8.60;5.70;;;5.40;99.90;;;;;;5057075;28;20498;-37
2023/12/27 03:09:49;;;;;;;11.32;5.97;;;5.40;99.90;;;;;;5058660;28;20025;-37
2023/12/27 03:12:15;;;;;;;11.00;6.10;;;5.40;99.90;;;;;;5059332;28;20583;-37
2023/12/27 03:14:41;;;;;;;11.73;5.85;;;5.40;99.90;;;;;;5058306;28;20021;-37
2023/12/27 03:17:07;;;;;;;11.02;6.72;;;5.50;99.90;;;;;;5058854;28;20534;-38
2023/12/27 03:19:32;;;;;;;8.45;5.97;;;5.50;99.90;;;;;;5058111;28;20029;-36
2023/12/27 03:21:58;;;;;;;7.70;5.75;;;5.50;99.90;;;;;;5058060;28;20135;-37
2023/12/27 03:24:24;;;;;;;9.05;6.13;;;5.50;99.90;;;;;;5058687;28;20020;-36
2023/12/27 03:26:50;;;;;;;9.80;6.45;;;5.50;99.90;;;;;;5056606;28;20044;-36
2023/12/27 03:29:15;;;;;;;10.18;6.60;;;5.50;99.90;;;;;;5058885;28;20070;-37
2023/12/27 03:31:41;;;;;;;10.75;6.20;;;5.50;99.90;;;;;;5058439;28;20103;-37
2023/12/27 03:34:07;;;;;;;9.68;7.55;;;5.50;99.90;;;;;;5058405;28;20060;-36
2023/12/27 03:36:32;;;;;;;11.20;7.30;;;5.60;99.90;;;;;;5058114;28;20029;-37
2023/12/27 03:38:58;;;;;;;13.57;6.90;;;5.50;99.90;;;;;;5057625;28;20033;-37
2023/12/27 03:41:24;;;;;;;12.73;6.55;;;5.60;99.90;;;;;;5058986;28;20020;-37
2023/12/27 03:43:50;;;;;;;10.73;6.63;;;5.50;99.90;;;;;;5058007;28;20496;-37
2023/12/27 03:46:17;;;;;;;10.10;7.07;;;5.60;99.90;;;;;;5057894;28;20032;-36
2023/12/27 03:48:42;;;;;;;10.90;7.55;;;5.60;99.90;;;;;;5057942;28;20037;-36
2023/12/27 03:51:08;;;;;;;14.52;8.00;;;5.60;99.90;;;;;;5058554;28;20819;-36
2023/12/27 03:55:55;;;;;;;15.07;8.05;;;5.60;99.90;;;;;;5056704;28;20426;-36
2023/12/27 03:58:21;;;;;;;18.85;8.82;;;5.60;99.90;;;;;;5056717;28;20032;-37
2023/12/27 04:00:47;;;;;;;18.92;9.02;;;5.60;99.90;;;;;;5057425;28;20333;-36
2023/12/27 04:03:14;;;;;;;16.08;8.23;;;5.60;99.90;;;;;;5054516;28;20444;-37
2023/12/27 04:05:39;;;;;;;16.95;8.90;;;5.60;99.90;;;;;;5056996;28;20036;-38
2023/12/27 04:08:05;;;;;;;16.83;8.55;;;5.60;99.90;;;;;;5056424;28;20391;-37
2023/12/27 04:10:31;;;;;;;16.67;8.63;;;5.60;99.90;;;;;;5056409;28;20039;-36
2023/12/27 04:12:59;;;;;;;19.38;9.85;;;5.60;99.90;;;;;;5056189;28;20033;-36
2023/12/27 04:15:25;;;;;;;16.42;10.10;;;5.60;99.90;;;;;;5056825;28;20795;-36
2023/12/27 04:17:51;;;;;;;15.48;9.10;;;5.60;99.90;;;;;;5054933;28;20037;-38
2023/12/27 04:20:17;;;;;;;20.58;9.30;;;5.60;99.90;;;;;;5056697;28;20043;-38
2023/12/27 04:22:42;;;;;;;22.55;8.63;;;5.60;99.90;;;;;;5054543;28;20024;-37
2023/12/27 04:25:08;;;;;;;13.40;8.57;;;5.60;99.90;;;;;;5056024;28;20047;-40
2023/12/27 04:27:34;;;;;;;16.75;8.63;;;5.60;99.90;;;;;;5056044;28;20508;-37
2023/12/27 04:30:00;;;;;;;12.80;8.80;;;5.60;99.90;;;;;;5056584;28;20895;-38
2023/12/27 04:32:26;;;;;;;16.38;9.40;;;5.60;99.90;;;;;;5054133;28;20031;-45
2023/12/27 04:34:51;;;;;;;16.77;9.43;;;5.60;99.90;;;;;;5056436;28;20041;-38
2023/12/27 04:37:17;;;;;;;14.32;9.38;;;5.70;99.90;;;;;;5056234;28;20409;-38
2023/12/27 04:39:43;;;;;;;15.52;8.43;;;5.60;99.90;;;;;;5055013;28;20475;-38
2023/12/27 04:42:08;;;;;;;13.98;7.95;;;5.70;99.90;;;;;;5053893;28;20017;-38
2023/12/27 04:44:34;;;;;;;13.55;7.95;;;5.70;99.90;;;;;;5056198;28;20416;-38
2023/12/27 04:47:00;;;;;;;13.18;8.00;;;5.70;99.90;;;;;;5054993;28;20017;-36
2023/12/27 04:49:25;;;;;;;16.02;7.95;;;5.70;99.90;;;;;;5055973;28;20027;-36
2023/12/27 04:51:51;;;;;;;16.55;8.77;;;5.70;99.90;;;;;;5056663;28;20136;-36
2023/12/27 04:54:17;;;;;;;20.98;9.57;;;5.80;99.90;;;;;;5055199;28;20151;-36
2023/12/27 04:56:42;;;;;;;18.08;9.93;;;5.70;99.90;;;;;;5056013;28;20040;-36
2023/12/27 04:59:08;;;;;;;19.13;9.55;;;5.80;99.90;;;;;;5053484;28;20032;-37
2023/12/27 05:01:34;;;;;;;18.42;10.73;;;5.80;99.90;;;;;;5055722;28;20024;-37
2023/12/27 05:03:59;;;;;;;19.05;10.27;;;5.80;99.90;;;;;;5055814;28;20021;-36
2023/12/27 05:06:28;;;;;;;17.13;10.57;;;5.80;99.90;;;;;;5046898;28;20033;-37
2023/12/27 05:08:53;;;;;;;16.95;10.30;;;5.80;99.90;;;;;;5041584;28;20033;-37
2023/12/27 05:11:20;;;;;;;17.50;10.57;;;5.80;99.90;;;;;;5042636;28;20503;-37
2023/12/27 05:13:49;;;;;;;21.15;10.95;;;5.80;99.90;;;;;;5042169;28;20036;-37
2023/12/27 05:16:16;;;;;;;19.58;10.55;;;5.90;99.90;;;;;;5042088;28;20091;-37
2023/12/27 05:18:43;;;;;;;21.00;11.05;;;5.90;99.90;;;;;;5041809;28;20063;-36
2023/12/27 05:21:10;;;;;;;18.10;10.57;;;5.90;99.90;;;;;;5041629;28;20360;-37
2023/12/27 05:23:36;;;;;;;21.08;10.40;;;5.90;99.90;;;;;;5042560;28;20021;-37
2023/12/27 05:26:03;;;;;;;23.30;11.27;;;5.90;99.90;;;;;;5042294;28;20242;-37
2023/12/27 05:28:29;;;;;;;17.42;10.27;;;5.90;99.90;;;;;;5042173;28;20082;-39
2023/12/27 05:30:57;;;;;;;21.55;10.20;;;5.90;99.90;;;;;;5042227;28;20017;-36
2023/12/27 05:33:26;;;;;;;16.98;9.68;;;5.90;99.90;;;;;;5042266;28;20111;-37
2023/12/27 05:35:52;;;;;;;16.17;8.85;;;5.90;99.90;;;;;;5040176;28;20029;-37
2023/12/27 05:38:18;;;;;;;19.55;9.77;;;5.90;99.90;;;;;;5041910;28;20025;-37
2023/12/27 05:40:44;;;;;;;13.48;8.85;;;5.90;99.90;;;;;;5041807;28;20503;-36
2023/12/27 05:43:09;;;;;;;15.93;9.00;;;5.90;99.90;;;;;;5041394;28;20087;-38
2023/12/27 05:45:35;;;;;;;21.70;8.60;;;5.90;99.90;;;;;;5041782;28;20056;-38
2023/12/27 05:48:01;;;;;;;17.30;9.15;;;6.00;99.90;;;;;;5035891;28;20140;-37
2023/12/27 05:50:26;;;;;;;16.27;8.70;;;6.00;99.90;;;;;;5033274;28;20825;-37
2023/12/27 05:52:54;;;;;;;15.85;8.45;;;6.00;99.90;;;;;;5041940;28;20174;-37
2023/12/27 05:55:20;;;;;;;19.83;8.55;;;6.00;99.90;;;;;;5040837;28;20044;-38
2023/12/27 05:57:45;;;;;;;19.27;9.43;;;6.00;99.90;;;;;;5042474;28;20041;-37
2023/12/27 06:00:12;;;;;;;15.45;8.02;;;6.00;99.90;;;;;;5039584;28;20472;-38
2023/12/27 06:02:37;;;;;;;19.65;9.23;;;6.10;99.90;;;;;;5041395;28;20070;-37
2023/12/27 06:05:03;;;;;;;16.35;7.90;;;6.00;99.90;;;;;;5041941;28;20613;-40
2023/12/27 06:07:29;;;;;;;13.18;8.27;;;6.10;99.90;;;;;;5042180;28;20410;-37
2023/12/27 06:09:55;;;;;;;13.18;7.43;;;6.10;99.90;;;;;;5041440;28;20025;-37
2023/12/27 06:12:20;;;;;;;13.90;7.78;;;6.10;99.90;;;;;;5042089;28;20029;-37
2023/12/27 06:14:46;;;;;;;14.35;7.38;;;6.10;99.90;;;;;;5042108;28;20033;-37
2023/12/27 06:17:12;;;;;;;11.15;7.28;;;6.10;99.90;;;;;;5039044;28;20056;-37
2023/12/27 06:19:38;;;;;;;18.42;8.32;;;6.20;99.90;;;;;;5041592;28;20021;-43
2023/12/27 06:22:04;;;;;;;12.88;7.00;;;6.10;99.90;;;;;;5041169;28;20823;-37
2023/12/27 06:24:33;;;;;;;14.18;7.75;;;6.20;99.90;;;;;;5041453;28;20025;-37
2023/12/27 06:26:58;;;;;;;14.80;7.80;;;6.20;99.90;;;;;;5041002;28;20717;-38
2023/12/27 06:29:24;;;;;;;14.85;8.00;;;6.30;99.90;;;;;;5041717;28;20094;-42
2023/12/27 06:31:49;;;;;;;15.63;7.50;;;6.30;99.90;;;;;;5036727;28;20060;-38
2023/12/27 06:34:17;;;;;;;18.17;8.18;;;6.30;99.90;;;;;;5041671;28;20568;-38
2023/12/27 06:36:47;;;;;;;16.42;7.90;;;6.30;99.90;;;;;;5038357;28;20120;-38
2023/12/27 06:39:13;;;;;;;15.27;8.73;;;6.30;99.90;;;;;;5040702;28;20124;-38
2023/12/27 06:41:39;;;;;;;17.77;8.07;;;6.30;99.90;;;;;;5041462;28;20032;-38
2023/12/27 06:44:04;;;;;;;18.67;7.75;;;6.30;99.90;;;;;;5041406;28;20056;-37
2023/12/27 06:46:30;;;;;;;17.58;8.90;;;6.30;99.90;;;;;;5038565;28;20446;-39
2023/12/27 06:48:56;;;;;;;18.98;8.75;;;6.30;99.90;;;;;;5041011;28;20059;-38
2023/12/27 06:51:22;;;;;;;19.92;8.27;;;6.30;99.90;;;;;;5040398;28;20086;-38
2023/12/27 06:53:48;;;;;;;18.70;9.13;;;6.40;99.90;;;;;;5040492;28;20057;-37
2023/12/27 06:56:17;;;;;;;22.02;9.05;;;6.40;99.90;;;;;;5041290;28;20037;-37
2023/12/27 06:58:42;;;;;;;19.95;9.30;;;6.40;99.90;;;;;;5040706;28;20079;-38
2023/12/27 07:01:09;;;;;;;16.63;8.70;;;6.40;99.90;;;;;;5041380;28;20025;-36
2023/12/27 07:03:38;;;;;;;21.15;9.32;;;6.40;99.90;;;;;;5039248;28;20053;-38
2023/12/27 07:06:04;;;;;;;19.65;9.30;;;6.40;99.90;;;;;;5020173;28;20069;-38
2023/12/27 07:08:31;;;;;;;23.50;10.50;;;6.40;99.90;;;;;;5036066;28;20052;-38
2023/12/27 07:10:56;;;;;;;19.95;10.00;;;6.40;99.90;;;;;;5040878;28;20071;-40
2023/12/27 07:13:22;;;;;;;19.55;9.45;;;6.40;99.90;;;;;;5039660;28;20045;-38
2023/12/27 07:15:48;;;;;;;18.08;8.57;;;6.40;99.90;;;;;;5040617;28;20040;-37
2023/12/27 07:18:14;;;;;;;20.85;8.82;;;6.40;99.90;;;;;;5040506;28;20070;-41
2023/12/27 07:20:39;;;;;;;22.05;9.82;;;6.40;99.90;;;;;;5037833;28;20087;-39
2023/12/27 07:23:05;;;;;;;20.17;9.18;;;6.50;99.90;;;;;;5040701;28;20039;-39
2023/12/27 07:25:30;;;;;;;20.85;8.88;;;6.40;99.90;;;;;;5040925;28;20444;-38
2023/12/27 07:27:56;;;;;;;17.88;8.93;;;6.50;99.90;;;;;;5040260;28;20059;-37
2023/12/27 07:30:22;;;;;;;17.95;10.30;;;6.50;99.90;;;;;;5039328;28;20071;-39
2023/12/27 07:32:48;;;;;;;23.67;9.30;;;6.50;99.90;;;;;;5040559;28;20527;-37
2023/12/27 07:35:13;;;;;;;17.85;8.55;;;6.50;99.90;;;;;;5039162;28;20037;-37
2023/12/27 07:37:41;;;;;;;17.88;8.52;;;6.50;99.90;;;;;;5040145;28;20162;-37
2023/12/27 07:40:09;;;;;;;16.80;9.27;;;6.50;99.90;;;;;;5038847;28;20036;-45
2023/12/27 07:42:36;;;;;;;14.80;8.48;;;6.60;99.90;;;;;;5038691;28;20052;-37
2023/12/27 07:45:03;;;;;;;17.63;9.23;;;6.60;99.90;;;;;;5037709;28;20512;-37
2023/12/27 07:47:28;;;;;;;19.58;8.57;;;6.60;99.90;;;;;;5040122;28;20079;-37
2023/12/27 07:49:55;;;;;;;18.27;9.18;;;6.60;99.90;;;;;;5037392;28;20481;-38
2023/12/27 07:52:21;;;;;;;17.40;8.70;;;6.60;99.90;;;;;;5040249;28;20042;-37
2023/12/27 07:54:47;;;;;;;16.65;8.32;;;6.60;99.90;;;;;;5039696;28;20049;-38
2023/12/27 07:57:15;;;;;;;21.25;8.07;;;6.60;99.90;;;;;;5039579;28;20021;-37
2023/12/27 07:59:41;;;;;;;17.25;7.38;;;6.60;99.90;;;;;;5039485;28;20021;-38
2023/12/27 08:02:07;;;;;;;16.27;7.68;;;6.70;99.90;;;;;;5038805;28;20033;-37
2023/12/27 08:04:32;;;;;;;18.63;9.00;;;6.70;99.90;;;;;;5039127;28;20070;-38
2023/12/27 08:07:00;;;;;;;16.35;8.50;;;6.70;99.90;;;;;;5036794;28;20700;-37
2023/12/27 08:09:26;;;;;;;18.05;8.50;;;6.70;99.90;;;;;;5038120;28;20524;-37
2023/12/27 08:11:52;;;;;;;14.57;7.28;;;6.70;99.90;;;;;;5039702;28;20104;-38
2023/12/27 08:14:18;;;;;;;20.13;8.50;;;6.80;99.90;;;;;;5039004;28;20029;-37
2023/12/27 08:16:43;;;;;;;13.93;7.60;;;6.80;99.90;;;;;;5037454;28;20812;-37
2023/12/27 08:19:10;;;;;;;18.85;7.65;;;6.70;99.90;;;;;;5039484;28;20052;-38
2023/12/27 08:21:35;;;;;;;13.68;7.22;;;6.80;99.90;;;;;;5038876;28;20738;-38
2023/12/27 08:24:01;;;;;;;14.23;7.30;;;6.80;99.90;;;;;;5040062;28;20024;-37
2023/12/27 08:26:27;;;;;;;16.42;7.75;;;6.80;99.90;;;;;;5038963;28;20469;-37
2023/12/27 08:28:53;;;;;;;16.17;8.18;;;6.80;99.90;;;;;;5039431;28;20025;-37
2023/12/27 08:31:18;;;;;;;13.68;7.72;;;6.80;99.90;;;;;;5036582;28;20024;-38
2023/12/27 08:33:48;;;;;;;16.63;8.48;;;6.90;99.90;;;;;;5037815;28;20041;-36
2023/12/27 08:36:14;;;;;;;17.48;8.25;;;6.90;99.90;;;;;;5042775;28;20045;-37
2023/12/27 08:38:41;;;;;;;16.90;8.35;;;6.90;99.90;;;;;;5038663;28;20028;-37
2023/12/27 08:41:06;;;;;;;11.10;7.20;;;6.90;99.90;;;;;;5039348;28;20035;-37
2023/12/27 08:43:33;;;;;;;12.25;7.07;;;6.90;99.90;;;;;;5042658;28;20790;-36
2023/12/27 08:45:59;;;;;;;12.68;8.45;;;6.90;99.90;;;;;;5039649;28;20028;-38
2023/12/27 08:48:25;;;;;;;11.15;7.70;;;6.90;99.90;;;;;;5041909;28;20029;-37
2023/12/27 08:50:52;;;;;;;10.35;7.32;;;7.00;99.90;;;;;;5040932;28;20025;-37
2023/12/27 08:53:18;;;;;;;13.18;7.72;;;7.00;99.90;;;;;;5040449;28;20033;-38
2023/12/27 08:55:43;;;;;;;14.98;8.82;;;7.00;99.90;;;;;;5040725;28;20117;-36
2023/12/27 08:58:11;;;;;;;11.98;8.02;;;7.00;99.90;;;;;;5041513;28;20021;-37
2023/12/27 09:00:36;;;;;;;11.95;7.85;;;7.00;99.90;;;;;;5042313;28;20032;-37
2023/12/27 09:03:03;;;;;;;13.07;7.82;;;7.00;99.90;;;;;;5041823;28;20021;-38
2023/12/27 09:05:28;;;;;;;10.73;7.13;;;7.00;99.90;;;;;;5041772;28;20060;-36
2023/12/27 09:07:54;;;;;;;10.10;7.72;;;7.10;99.90;;;;;;5039410;28;20021;-37
2023/12/27 09:10:20;;;;;;;10.35;7.50;;;7.10;99.90;;;;;;5042160;28;20754;-37
2023/12/27 09:12:46;;;;;;;11.63;7.65;;;7.10;99.90;;;;;;5041525;28;20020;-36
2023/12/27 09:15:13;;;;;;;10.77;6.57;;;7.10;99.90;;;;;;5041805;28;20041;-37
2023/12/27 09:17:39;;;;;;;12.85;8.30;;;7.10;99.90;;;;;;5040412;28;20075;-37
2023/12/27 09:20:07;;;;;;;8.57;6.50;;;7.20;99.90;;;;;;5040715;28;20033;-38
2023/12/27 09:22:34;;;;;;;8.52;6.50;;;7.30;99.90;;;;;;5037897;28;20036;-36
2023/12/27 09:24:59;;;;;;;6.70;5.53;;;7.30;99.90;;;;;;5039250;28;20046;-37
2023/12/27 09:27:26;;;;;;;7.63;6.57;;;7.30;99.90;;;;;;5039963;28;20431;-37
2023/12/27 09:29:52;;;;;;;8.15;6.13;;;7.30;99.90;;;;;;5040242;28;20083;-36
2023/12/27 09:32:17;;;;;;;10.10;6.30;;;7.30;99.90;;;;;;5041543;28;20075;-37
2023/12/27 09:34:43;;;;;;;6.05;5.43;;;7.40;99.90;;;;;;5040067;28;20557;-37
2023/12/27 09:37:09;;;;;;;7.30;5.80;;;7.40;99.90;;;;;;5040941;28;20394;-38
2023/12/27 09:39:35;;;;;;;6.93;5.28;;;7.40;99.90;;;;;;5040939;28;20033;-37
2023/12/27 09:42:01;;;;;;;7.57;4.82;;;7.50;99.90;;;;;;5038769;28;20036;-36
2023/12/27 09:44:27;;;;;;;5.90;4.95;;;7.50;99.90;;;;;;5038585;28;20029;-37
2023/12/27 09:46:55;;;;;;;5.15;4.40;;;7.50;99.90;;;;;;5040813;28;20052;-37
2023/12/27 09:49:23;;;;;;;5.72;5.20;;;7.60;99.90;;;;;;5038673;28;20115;-37
2023/12/27 09:51:48;;;;;;;5.07;4.57;;;7.60;99.90;;;;;;5036229;28;20041;-37
2023/12/27 09:54:16;;;;;;;6.20;4.53;;;7.70;99.90;;;;;;5040412;28;20687;-37
2023/12/27 09:56:44;;;;;;;5.20;4.70;;;7.70;99.90;;;;;;5041057;28;20950;-37
2023/12/27 09:59:16;;;;;;;6.60;5.35;;;7.80;99.90;;;;;;5041573;28;20047;-37
2023/12/27 10:01:46;;;;;;;4.70;4.28;;;7.80;99.90;;;;;;5021379;28;21050;-37
2023/12/27 10:04:29;;;;;;;4.93;4.43;;;7.80;99.90;;;;;;5035244;28;20016;-37
2023/12/27 10:06:58;;;;;;;5.60;4.45;;;7.90;99.90;;;;;;5028401;28;20051;-37
2023/12/27 10:09:24;;;;;;;4.78;4.18;;;8.00;99.90;;;;;;5037980;28;20055;-37
2023/12/27 10:11:50;;;;;;;4.70;4.13;;;8.00;99.90;;;;;;5040407;28;20533;-36
2023/12/27 10:14:17;;;;;;;5.03;4.28;;;8.10;99.90;;;;;;5039297;28;20528;-36
2023/12/27 10:16:43;;;;;;;4.13;3.72;;;8.10;99.90;;;;;;5035600;28;20063;-35
2023/12/27 10:19:41;;;;;;;3.88;3.58;;;8.20;99.90;;;;;;5040210;28;20128;-35
2023/12/27 10:22:07;;;;;;;4.20;3.80;;;8.20;99.90;;;;;;5039173;28;20036;-36
2023/12/27 10:24:37;;;;;;;5.63;4.43;;;8.20;99.90;;;;;;5040110;28;20721;-45
2023/12/27 10:27:07;;;;;;;3.90;3.50;;;8.30;99.90;;;;;;5041057;28;20033;-37
2023/12/27 10:29:35;;;;;;;4.68;3.60;;;8.30;99.90;;;;;;5039582;28;20025;-36
2023/12/27 10:32:03;;;;;;;4.65;4.25;;;8.30;99.90;;;;;;5040728;28;20024;-35
2023/12/27 10:34:29;;;;;;;4.20;3.75;;;8.30;99.90;;;;;;5040196;28;20036;-36
2023/12/27 10:36:55;;;;;;;3.72;3.38;;;8.40;99.90;;;;;;5038816;28;20029;-35
2023/12/27 10:39:21;;;;;;;3.58;3.25;;;8.40;99.90;;;;;;5039819;28;20028;-36
2023/12/27 10:41:47;;;;;;;4.70;3.92;;;8.40;99.90;;;;;;5039548;28;20033;-36
2023/12/27 10:44:17;;;;;;;3.92;3.63;;;8.40;99.90;;;;;;5038049;28;20029;-36
2023/12/27 10:46:44;;;;;;;4.88;4.25;;;8.40;99.90;;;;;;5039539;28;20024;-36
2023/12/27 10:49:13;;;;;;;3.90;3.50;;;8.50;99.90;;;;;;5039726;28;20679;-41
2023/12/27 10:51:40;;;;;;;4.32;3.85;;;8.50;99.90;;;;;;5035333;28;20021;-36
2023/12/27 10:54:07;;;;;;;4.82;4.07;;;8.50;99.90;;;;;;5038645;28;20052;-37
2023/12/27 10:56:37;;;;;;;4.85;3.95;;;8.50;99.90;;;;;;5040204;28;20542;-37
2023/12/27 10:59:10;;;;;;;4.15;3.47;;;8.50;99.90;;;;;;5040065;28;20503;-37
2023/12/27 11:01:42;;;;;;;3.92;3.53;;;8.50;99.90;;;;;;5039719;28;20033;-36
2023/12/27 11:04:10;;;;;;;3.97;3.30;;;8.50;99.90;;;;;;5039318;28;20040;-36
2023/12/27 11:06:39;;;;;;;3.72;3.10;;;8.60;99.90;;;;;;5038275;28;20079;-38
2023/12/27 11:09:07;;;;;;;4.03;3.50;;;8.60;99.90;;;;;;5038493;28;20040;-37
2023/12/27 11:11:38;;;;;;;4.20;3.17;;;8.60;99.90;;;;;;5038636;28;20101;-35
2023/12/27 11:14:05;;;;;;;4.72;3.55;;;8.60;99.90;;;;;;5038291;28;20039;-36
2023/12/27 11:16:34;;;;;;;3.63;2.95;;;8.60;99.90;;;;;;5039686;28;20024;-36
2023/12/27 11:19:06;;;;;;;3.65;3.10;;;8.70;99.90;;;;;;5040204;28;20029;-36
2023/12/27 11:21:35;;;;;;;4.38;3.15;;;8.70;99.90;;;;;;5040793;28;20111;-36
2023/12/27 11:24:03;;;;;;;3.30;3.00;;;8.70;99.90;;;;;;5040325;28;20013;-36
2023/12/27 11:26:36;;;;;;;3.42;2.65;;;8.80;99.90;;;;;;5039514;28;20037;-36
2023/12/27 11:29:08;;;;;;;3.42;2.70;;;8.80;99.90;;;;;;5040571;28;20087;-35
2023/12/27 11:31:34;;;;;;;2.92;2.60;;;8.80;99.90;;;;;;5040461;28;20033;-36
2023/12/27 11:34:02;;;;;;;4.05;2.50;;;8.80;99.90;;;;;;5039235;28;20674;-35
2023/12/27 11:36:28;;;;;;;3.53;2.72;;;8.90;99.90;;;;;;5039934;28;20145;-35
2023/12/27 11:38:57;;;;;;;2.58;2.35;;;8.90;99.90;;;;;;5039854;28;20021;-35
2023/12/27 11:41:27;;;;;;;3.47;2.15;;;8.90;99.90;;;;;;5038469;28;20032;-36
2023/12/27 11:43:56;;;;;;;3.03;2.42;;;9.00;99.90;;;;;;5039940;28;20111;-36
2023/12/27 11:46:30;;;;;;;3.85;2.33;;;9.00;99.90;;;;;;5037223;28;20021;-37
2023/12/27 11:49:00;;;;;;;4.45;2.30;;;9.00;99.90;;;;;;5038701;28;20028;-36
2023/12/27 11:51:34;;;;;;;2.88;2.58;;;9.10;99.90;;;;;;5039863;28;20024;-36
2023/12/27 11:54:03;;;;;;;3.33;2.80;;;9.10;99.90;;;;;;5038872;28;20041;-36
2023/12/27 11:56:31;;;;;;;2.40;2.20;;;9.10;99.90;;;;;;5040080;28;20075;-36
2023/12/27 11:58:59;;;;;;;2.33;2.13;;;9.10;99.90;;;;;;5040505;28;20504;-36
2023/12/27 12:01:30;;;;;;;3.70;2.53;;;9.10;99.90;;;;;;5039791;28;20499;-37
2023/12/27 12:04:02;;;;;;;2.72;2.22;;;9.10;99.90;;;;;;5038836;28;20025;-37
2023/12/27 12:06:35;;;;;;;;;;;9.20;99.90;;;;;;5040015;28;20495;-35
2023/12/27 12:09:01;;;;;;;2.40;2.20;;;9.20;99.90;;;;;;5039181;28;19931;-37
2023/12/27 12:11:27;;;;;;;2.88;2.22;;;9.30;99.90;;;;;;5039147;28;20021;-35
2023/12/27 12:13:54;;;;;;;2.72;2.40;;;9.30;99.90;;;;;;5038160;28;20075;-36
2023/12/27 12:16:20;;;;;;;3.00;2.53;;;9.30;99.90;;;;;;5040048;28;20048;-37
2023/12/27 12:18:46;;;;;;;3.45;2.58;;;9.30;99.90;;;;;;5044167;28;20021;-36
2023/12/27 12:21:12;;;;;;;2.33;2.05;;;9.30;99.90;;;;;;5043303;28;20032;-37
2023/12/27 12:23:38;;;;;;;2.47;2.00;;;9.30;99.90;;;;;;5042061;28;20025;-37
2023/12/27 12:26:05;;;;;;;3.17;2.10;;;9.40;99.90;;;;;;5042385;28;20029;-35
2023/12/27 12:28:30;;;;;;;2.30;2.03;;;9.40;99.90;;;;;;5042488;28;20115;-37
2023/12/27 12:30:57;;;;;;;2.05;1.90;;;9.40;99.90;;;;;;5041829;28;20353;-37
2023/12/27 12:33:24;;;;;;;2.53;2.10;;;9.50;99.90;;;;;;5042423;28;20024;-37
2023/12/27 12:35:51;;;;;;;3.97;2.05;;;9.50;99.90;;;;;;5042724;28;20127;-36
2023/12/27 12:38:20;;;;;;;3.17;2.28;;;9.50;99.90;;;;;;5042858;28;20025;-36
2023/12/27 12:40:47;;;;;;;3.15;2.20;;;9.50;99.90;;;;;;5043636;28;20104;-37
2023/12/27 12:43:14;;;;;;;3.10;1.90;;;9.60;99.90;;;;;;5042386;28;20024;-38
2023/12/27 12:45:41;;;;;;;2.13;1.90;;;9.60;99.90;;;;;;5042937;28;20075;-37
2023/12/27 12:48:10;;;;;;;2.75;1.75;;;9.60;99.90;;;;;;5043241;28;20029;-36
2023/12/27 12:50:35;;;;;;;2.28;1.95;;;9.60;99.90;;;;;;5042646;28;20108;-37